Wetterdaten: Woche 29.03.10 - 04.04.10 (KW13)
Datum Zeit Temperatur Luftfeuchte Luftdruck Niederschlag Wind Richtung Sonnenschein Solar Taupunkt Windchill Windben
29.03.2010 00:00 8.7 C 94 % 1013.0 hPa 1.0 l/m 0.0 km/h (0 Bft) W-SW 0.00 h 0 W/m 7.8 C 8.7 C 0.3 km/h (0 Bft)
29.03.2010 01:00 8.7 C 95 % 1012.8 hPa 0.4 l/m 2.3 km/h (1 Bft) S 0.00 h 0 W/m 7.9 C 8.6 C 4.2 km/h (1 Bft)
29.03.2010 02:00 8.7 C 95 % 1012.3 hPa 0.0 l/m 0.2 km/h (0 Bft) N-NW 0.00 h 0 W/m 7.9 C 8.7 C 0.8 km/h (0 Bft)
29.03.2010 03:00 8.7 C 95 % 1012.0 hPa 0.0 l/m 1.0 km/h (0 Bft) S 0.00 h 0 W/m 7.9 C 8.7 C 2.5 km/h (1 Bft)
29.03.2010 04:00 8.7 C 93 % 1011.6 hPa 0.0 l/m 0.9 km/h (0 Bft) S 0.00 h 0 W/m 7.6 C 8.7 C 2.8 km/h (1 Bft)
29.03.2010 05:00 8.4 C 92 % 1011.1 hPa 0.0 l/m 1.1 km/h (1 Bft) S-SO 0.00 h 0 W/m 7.2 C 8.4 C 2.4 km/h (1 Bft)
29.03.2010 06:00 8.3 C 92 % 1011.0 hPa 0.0 l/m 2.6 km/h (1 Bft) S 0.00 h 0 W/m 7.0 C 8.2 C 5.4 km/h (1 Bft)
29.03.2010 07:00 8.4 C 90 % 1011.0 hPa 0.0 l/m 1.3 km/h (1 Bft) S 0.00 h 21 W/m 6.9 C 8.4 C 3.6 km/h (1 Bft)
29.03.2010 08:00 8.7 C 91 % 1010.9 hPa 0.2 l/m 1.3 km/h (1 Bft) S 0.00 h 64 W/m 7.2 C 8.7 C 3.7 km/h (1 Bft)
29.03.2010 09:00 9.5 C 91 % 1010.5 hPa 0.0 l/m 1.6 km/h (1 Bft) S-SO 0.38 h 224 W/m 8.0 C 9.5 C 3.8 km/h (1 Bft)
29.03.2010 10:00 11.2 C 83 % 1010.2 hPa 0.0 l/m 3.3 km/h (1 Bft) S-SW 0.68 h 361 W/m 8.5 C 11.2 C 6.3 km/h (2 Bft)
29.03.2010 11:00 12.5 C 74 % 1009.9 hPa 0.0 l/m 4.5 km/h (1 Bft) S-SO 0.07 h 280 W/m 8.0 C 12.5 C 8.4 km/h (2 Bft)
29.03.2010 12:00 13.6 C 68 % 1009.6 hPa 0.0 l/m 4.1 km/h (1 Bft) S-SO 0.87 h 558 W/m 7.9 C 13.6 C 7.3 km/h (2 Bft)
29.03.2010 13:00 15.4 C 61 % 1008.6 hPa 0.0 l/m 3.4 km/h (1 Bft) S-SW 0.83 h 517 W/m 7.9 C 15.4 C 6.6 km/h (2 Bft)
29.03.2010 14:00 15.9 C 57 % 1007.4 hPa 0.0 l/m 3.1 km/h (1 Bft) S-SO 0.30 h 364 W/m 7.4 C 15.9 C 6.0 km/h (2 Bft)
29.03.2010 15:00 17.6 C 50 % 1006.2 hPa 0.0 l/m 6.2 km/h (2 Bft) S-SW 0.77 h 478 W/m 6.9 C 17.6 C 11.2 km/h (2 Bft)
29.03.2010 16:00 17.4 C 49 % 1005.4 hPa 0.0 l/m 4.8 km/h (1 Bft) SO 0.45 h 318 W/m 6.5 C 17.4 C 8.3 km/h (2 Bft)
29.03.2010 17:00 17.2 C 49 % 1004.6 hPa 0.2 l/m 4.4 km/h (1 Bft) SO 0.38 h 223 W/m 6.5 C 17.2 C 7.2 km/h (2 Bft)
29.03.2010 18:00 16.5 C 55 % 1003.9 hPa 0.0 l/m 5.0 km/h (1 Bft) SO 0.15 h 105 W/m 7.3 C 16.5 C 7.6 km/h (2 Bft)
29.03.2010 19:00 15.4 C 56 % 1003.3 hPa 0.0 l/m 5.0 km/h (1 Bft) O-SO 0.00 h 25 W/m 6.7 C 15.4 C 7.0 km/h (2 Bft)
29.03.2010 20:00 14.3 C 59 % 1002.6 hPa 0.0 l/m 0.5 km/h (0 Bft) O-SO 0.00 h 0 W/m 6.4 C 14.3 C 1.5 km/h (1 Bft)
29.03.2010 21:00 13.1 C 66 % 1002.3 hPa 0.0 l/m 0.4 km/h (0 Bft) SO 0.00 h 0 W/m 6.8 C 13.1 C 1.5 km/h (1 Bft)
29.03.2010 22:00 11.9 C 72 % 1002.1 hPa 0.0 l/m 0.1 km/h (0 Bft) SO 0.00 h 0 W/m 7.0 C 11.9 C 0.3 km/h (0 Bft)
29.03.2010 23:00 10.7 C 79 % 1002.2 hPa 0.0 l/m 0.8 km/h (0 Bft) SO 0.00 h 0 W/m 7.2 C 10.7 C 1.8 km/h (1 Bft)
30.03.2010 00:00 10.3 C 81 % 1001.8 hPa 0.0 l/m 0.7 km/h (0 Bft) SO 0.00 h 0 W/m 7.2 C 10.3 C 1.3 km/h (1 Bft)
30.03.2010 01:00 10.0 C 83 % 1001.5 hPa 0.0 l/m 0.7 km/h (0 Bft) O 0.00 h 0 W/m 7.2 C 10.0 C 1.8 km/h (1 Bft)
30.03.2010 02:00 9.4 C 85 % 1000.9 hPa 0.0 l/m 1.1 km/h (1 Bft) O 0.00 h 0 W/m 7.0 C 9.4 C 1.8 km/h (1 Bft)
30.03.2010 03:00 8.8 C 87 % 1000.2 hPa 0.0 l/m 0.5 km/h (0 Bft) O 0.00 h 0 W/m 6.7 C 8.8 C 1.2 km/h (1 Bft)
30.03.2010 04:00 7.8 C 89 % 999.4 hPa 0.0 l/m 2.2 km/h (1 Bft) O-SO 0.00 h 0 W/m 6.1 C 7.7 C 3.6 km/h (1 Bft)
30.03.2010 05:00 7.0 C 90 % 998.7 hPa 0.0 l/m 1.1 km/h (0 Bft) O-SO 0.00 h 0 W/m 5.4 C 7.0 C 1.8 km/h (1 Bft)
30.03.2010 06:00 6.4 C 91 % 998.2 hPa 0.0 l/m 0.5 km/h (0 Bft) O-SO 0.00 h 0 W/m 5.0 C 6.4 C 1.0 km/h (0 Bft)
30.03.2010 07:00 5.6 C 92 % 997.8 hPa 0.0 l/m 0.6 km/h (0 Bft) O-SO 0.00 h 18 W/m 4.5 C 5.6 C 1.4 km/h (1 Bft)
30.03.2010 08:00 6.3 C 95 % 997.4 hPa 0.0 l/m 0.1 km/h (0 Bft) O-SO 0.90 h 144 W/m 5.5 C 6.3 C 0.6 km/h (0 Bft)
30.03.2010 09:00 8.9 C 92 % 996.4 hPa 0.0 l/m 0.1 km/h (0 Bft) O-SO 0.83 h 257 W/m 7.6 C 8.9 C 0.5 km/h (0 Bft)
30.03.2010 10:00 10.6 C 82 % 996.1 hPa 0.0 l/m 0.3 km/h (0 Bft) O-SO 0.42 h 301 W/m 7.7 C 10.6 C 1.2 km/h (1 Bft)
30.03.2010 11:00 12.6 C 72 % 995.4 hPa 0.0 l/m 0.8 km/h (0 Bft) SO 0.20 h 277 W/m 7.8 C 12.6 C 2.2 km/h (1 Bft)
30.03.2010 12:00 13.5 C 68 % 994.7 hPa 0.0 l/m 2.2 km/h (1 Bft) W-NW 0.13 h 304 W/m 7.6 C 13.5 C 4.3 km/h (1 Bft)
30.03.2010 13:00 15.0 C 60 % 994.1 hPa 0.0 l/m 1.0 km/h (0 Bft) NW 0.38 h 405 W/m 7.1 C 15.0 C 2.5 km/h (1 Bft)
30.03.2010 14:00 15.8 C 55 % 993.4 hPa 0.0 l/m 12.7 km/h (3 Bft) W 0.72 h 493 W/m 6.8 C 15.8 C 20.2 km/h (4 Bft)
30.03.2010 15:00 14.6 C 52 % 994.6 hPa 0.0 l/m 22.3 km/h (4 Bft) W 0.75 h 472 W/m 4.8 C 14.6 C 33.5 km/h (5 Bft)
30.03.2010 16:00 11.0 C 72 % 997.0 hPa 0.2 l/m 17.8 km/h (3 Bft) W 0.02 h 112 W/m 6.1 C 10.6 C 26.9 km/h (4 Bft)
30.03.2010 17:00 9.1 C 83 % 998.4 hPa 0.0 l/m 10.1 km/h (2 Bft) W 0.00 h 78 W/m 6.4 C 7.6 C 15.8 km/h (3 Bft)
30.03.2010 18:00 8.8 C 81 % 999.3 hPa 0.0 l/m 5.7 km/h (1 Bft) S-SW 0.00 h 19 W/m 5.7 C 8.2 C 9.4 km/h (2 Bft)
30.03.2010 19:00 8.1 C 77 % 999.7 hPa 0.0 l/m 3.8 km/h (1 Bft) S 0.00 h 11 W/m 4.2 C 7.8 C 7.1 km/h (2 Bft)
30.03.2010 20:00 7.9 C 73 % 1000.2 hPa 0.0 l/m 4.5 km/h (1 Bft) S-SW 0.00 h 0 W/m 3.4 C 7.5 C 7.8 km/h (2 Bft)
30.03.2010 21:00 8.6 C 71 % 1000.6 hPa 0.2 l/m 6.9 km/h (2 Bft) SW 0.00 h 0 W/m 3.6 C 7.7 C 10.5 km/h (2 Bft)
30.03.2010 22:00 8.2 C 77 % 1001.6 hPa 0.2 l/m 17.0 km/h (3 Bft) W 0.00 h 0 W/m 4.4 C 5.7 C 25.2 km/h (4 Bft)
30.03.2010 23:00 7.3 C 68 % 1003.5 hPa 0.2 l/m 24.4 km/h (4 Bft) W 0.00 h 0 W/m 1.7 C 3.6 C 36.7 km/h (5 Bft)
31.03.2010 00:00 6.6 C 73 % 1005.1 hPa 0.0 l/m 14.2 km/h (3 Bft) W 0.00 h 0 W/m 2.1 C 3.9 C 22.2 km/h (4 Bft)
31.03.2010 01:00 5.7 C 80 % 1005.5 hPa 0.2 l/m 7.6 km/h (2 Bft) W-SW 0.00 h 0 W/m 2.6 C 4.2 C 11.7 km/h (2 Bft)
31.03.2010 02:00 5.5 C 80 % 1005.6 hPa 0.0 l/m 3.6 km/h (1 Bft) S-SW 0.00 h 0 W/m 2.3 C 5.3 C 6.5 km/h (2 Bft)
31.03.2010 03:00 5.2 C 84 % 1005.7 hPa 0.0 l/m 3.4 km/h (1 Bft) S-SW 0.00 h 0 W/m 2.6 C 4.9 C 6.1 km/h (2 Bft)
31.03.2010 04:00 4.8 C 84 % 1005.8 hPa 0.0 l/m 3.1 km/h (1 Bft) S 0.00 h 0 W/m 2.4 C 4.7 C 6.3 km/h (2 Bft)
31.03.2010 05:00 4.9 C 82 % 1005.7 hPa 0.0 l/m 1.8 km/h (1 Bft) S-SO 0.00 h 0 W/m 2.0 C 4.9 C 3.9 km/h (1 Bft)
31.03.2010 06:00 5.1 C 79 % 1005.6 hPa 0.0 l/m 3.6 km/h (1 Bft) S 0.00 h 0 W/m 1.8 C 4.7 C 6.5 km/h (2 Bft)
31.03.2010 07:00 5.2 C 76 % 1005.8 hPa 0.0 l/m 3.2 km/h (1 Bft) S-SO 0.00 h 20 W/m 1.3 C 5.0 C 6.5 km/h (2 Bft)
31.03.2010 08:00 5.4 C 75 % 1005.9 hPa 0.0 l/m 4.5 km/h (1 Bft) S-SO 0.00 h 57 W/m 1.3 C 4.8 C 8.4 km/h (2 Bft)
31.03.2010 09:00 7.3 C 65 % 1005.5 hPa 0.0 l/m 8.6 km/h (2 Bft) W-SW 0.47 h 249 W/m 1.1 C 6.0 C 13.8 km/h (3 Bft)
31.03.2010 10:00 9.4 C 53 % 1005.2 hPa 0.0 l/m 9.3 km/h (2 Bft) W-SW 0.67 h 362 W/m 0.4 C 8.1 C 14.7 km/h (3 Bft)
31.03.2010 11:00 10.3 C 53 % 1005.2 hPa 0.0 l/m 11.6 km/h (2 Bft) W 0.42 h 374 W/m 1.0 C 10.0 C 18.1 km/h (3 Bft)
31.03.2010 12:00 9.9 C 55 % 1005.3 hPa 0.0 l/m 13.7 km/h (3 Bft) W 0.12 h 289 W/m 1.3 C 8.9 C 20.4 km/h (4 Bft)
31.03.2010 13:00 10.1 C 55 % 1005.7 hPa 0.0 l/m 15.1 km/h (3 Bft) SW 0.87 h 533 W/m 1.6 C 9.1 C 23.3 km/h (4 Bft)
31.03.2010 14:00 10.9 C 53 % 1005.4 hPa 0.0 l/m 14.8 km/h (3 Bft) SW 0.55 h 493 W/m 1.7 C 10.6 C 22.8 km/h (4 Bft)
31.03.2010 15:00 10.8 C 57 % 1005.8 hPa 0.0 l/m 13.9 km/h (3 Bft) SW 0.85 h 551 W/m 2.7 C 10.8 C 21.9 km/h (4 Bft)
31.03.2010 16:00 11.9 C 53 % 1005.4 hPa 0.0 l/m 12.5 km/h (3 Bft) SW 0.73 h 474 W/m 2.5 C 11.9 C 20.0 km/h (4 Bft)
31.03.2010 17:00 10.4 C 54 % 1005.4 hPa 0.0 l/m 12.1 km/h (2 Bft) SW 0.08 h 137 W/m 1.5 C 10.1 C 19.4 km/h (3 Bft)
31.03.2010 18:00 9.7 C 56 % 1005.9 hPa 0.4 l/m 14.2 km/h (3 Bft) W 0.07 h 56 W/m 1.2 C 8.7 C 21.8 km/h (4 Bft)
31.03.2010 19:00 5.7 C 80 % 1007.1 hPa 0.6 l/m 8.8 km/h (2 Bft) W 0.40 h 31 W/m 2.5 C 4.1 C 13.1 km/h (3 Bft)
31.03.2010 20:00 5.1 C 83 % 1007.1 hPa 0.0 l/m 4.2 km/h (1 Bft) O-SO 0.00 h 0 W/m 2.4 C 4.4 C 5.7 km/h (1 Bft)
31.03.2010 21:00 4.3 C 86 % 1007.3 hPa 0.0 l/m 0.5 km/h (0 Bft) O 0.00 h 0 W/m 2.2 C 4.3 C 1.4 km/h (1 Bft)
31.03.2010 22:00 3.6 C 88 % 1007.4 hPa 0.0 l/m 0.5 km/h (0 Bft) O 0.00 h 0 W/m 1.8 C 3.6 C 1.2 km/h (1 Bft)
31.03.2010 23:00 3.3 C 90 % 1007.5 hPa 0.2 l/m 0.8 km/h (0 Bft) W 0.00 h 0 W/m 1.8 C 3.1 C 1.6 km/h (1 Bft)
01.04.2010 00:00 3.5 C 92 % 1008.0 hPa 0.0 l/m 1.3 km/h (1 Bft) O-SO 0.00 h 0 W/m 2.4 C 3.5 C 3.1 km/h (1 Bft)
01.04.2010 01:00 4.2 C 91 % 1008.1 hPa 0.0 l/m 4.5 km/h (1 Bft) W-NW 0.00 h 0 W/m 2.8 C 3.4 C 7.5 km/h (2 Bft)
01.04.2010 02:00 4.2 C 88 % 1008.1 hPa 0.2 l/m 6.9 km/h (2 Bft) W-NW 0.00 h 0 W/m 2.3 C 2.5 C 10.6 km/h (2 Bft)
01.04.2010 03:00 3.5 C 89 % 1008.6 hPa 0.8 l/m 5.8 km/h (2 Bft) W-NW 0.00 h 0 W/m 1.8 C 2.2 C 9.5 km/h (2 Bft)
01.04.2010 04:00 2.5 C 90 % 1009.1 hPa 0.6 l/m 4.7 km/h (1 Bft) W 0.00 h 0 W/m 1.0 C 1.5 C 7.7 km/h (2 Bft)
01.04.2010 05:00 2.2 C 91 % 1010.3 hPa 0.0 l/m 2.9 km/h (1 Bft) S-SO 0.00 h 0 W/m 0.9 C 1.8 C 5.2 km/h (1 Bft)
01.04.2010 06:00 2.3 C 91 % 1011.5 hPa 0.2 l/m 1.7 km/h (1 Bft) S-SO 0.00 h 0 W/m 1.0 C 2.2 C 3.9 km/h (1 Bft)
01.04.2010 07:00 2.3 C 92 % 1012.4 hPa 0.2 l/m 3.0 km/h (1 Bft) S-SW 0.00 h 9 W/m 1.1 C 2.0 C 5.8 km/h (2 Bft)
01.04.2010 08:00 2.4 C 93 % 1013.2 hPa 0.0 l/m 3.0 km/h (1 Bft) S-SO 0.00 h 34 W/m 1.4 C 2.1 C 6.0 km/h (2 Bft)
01.04.2010 09:00 2.8 C 93 % 1013.7 hPa 0.0 l/m 3.6 km/h (1 Bft) S-SW 0.00 h 69 W/m 1.8 C 2.4 C 6.8 km/h (2 Bft)
01.04.2010 10:00 3.2 C 92 % 1014.3 hPa 0.0 l/m 4.6 km/h (1 Bft) S-SW 0.00 h 116 W/m 2.1 C 2.5 C 8.1 km/h (2 Bft)
01.04.2010 11:00 4.1 C 90 % 1014.9 hPa 0.0 l/m 5.3 km/h (1 Bft) S-SW 0.00 h 216 W/m 2.6 C 3.1 C 9.0 km/h (2 Bft)
01.04.2010 12:00 5.1 C 85 % 1015.6 hPa 0.0 l/m 5.8 km/h (2 Bft) S-SW 0.00 h 260 W/m 2.7 C 3.9 C 9.9 km/h (2 Bft)
01.04.2010 13:00 6.1 C 79 % 1015.9 hPa 0.0 l/m 5.5 km/h (1 Bft) S 0.45 h 399 W/m 2.7 C 5.3 C 9.4 km/h (2 Bft)
01.04.2010 14:00 7.4 C 70 % 1016.1 hPa 0.0 l/m 5.3 km/h (1 Bft) S-SO 0.38 h 429 W/m 2.3 C 6.7 C 9.4 km/h (2 Bft)
01.04.2010 15:00 7.2 C 67 % 1016.0 hPa 0.0 l/m 7.0 km/h (2 Bft) S-SO 0.08 h 166 W/m 1.4 C 6.2 C 11.8 km/h (2 Bft)
01.04.2010 16:00 4.8 C 80 % 1016.6 hPa 0.8 l/m 4.3 km/h (1 Bft) NO 0.08 h 135 W/m 1.7 C 4.0 C 7.5 km/h (2 Bft)
01.04.2010 17:00 3.7 C 86 % 1017.1 hPa 1.2 l/m 6.4 km/h (2 Bft) O-SO 0.48 h 238 W/m 1.6 C 2.2 C 10.0 km/h (2 Bft)
01.04.2010 18:00 4.9 C 85 % 1017.1 hPa 0.0 l/m 3.1 km/h (1 Bft) S-SO 0.20 h 89 W/m 2.6 C 4.5 C 5.8 km/h (2 Bft)
01.04.2010 19:00 4.6 C 81 % 1017.6 hPa 0.0 l/m 0.4 km/h (0 Bft) SO 0.10 h 26 W/m 1.7 C 4.6 C 1.5 km/h (1 Bft)
01.04.2010 20:00 3.8 C 84 % 1018.4 hPa 0.0 l/m 1.3 km/h (1 Bft) SO 0.00 h 0 W/m 1.3 C 3.7 C 2.7 km/h (1 Bft)
01.04.2010 21:00 3.2 C 86 % 1018.9 hPa 0.0 l/m 3.1 km/h (1 Bft) O 0.00 h 0 W/m 1.1 C 2.9 C 5.1 km/h (1 Bft)
01.04.2010 22:00 2.2 C 88 % 1019.2 hPa 0.0 l/m 3.0 km/h (1 Bft) O 0.00 h 0 W/m 0.3 C 2.0 C 4.1 km/h (1 Bft)
01.04.2010 23:00 1.4 C 90 % 1019.4 hPa 0.0 l/m 3.0 km/h (1 Bft) O-SO 0.00 h 0 W/m -0.1 C 1.0 C 4.1 km/h (1 Bft)
02.04.2010 00:00 0.7 C 91 % 1019.7 hPa 0.0 l/m 1.8 km/h (1 Bft) O-SO 0.00 h 0 W/m -0.5 C 0.7 C 3.1 km/h (1 Bft)
02.04.2010 01:00 0.6 C 92 % 1019.7 hPa 0.0 l/m 0.0 km/h (0 Bft) O-SO 0.00 h 0 W/m -0.5 C 0.6 C 0.1 km/h (0 Bft)
02.04.2010 02:00 0.6 C 93 % 1019.3 hPa 0.0 l/m 0.9 km/h (0 Bft) O-SO 0.00 h 0 W/m -0.3 C 0.6 C 2.0 km/h (1 Bft)
02.04.2010 03:00 0.8 C 95 % 1019.1 hPa 0.0 l/m 1.6 km/h (1 Bft) O 0.00 h 0 W/m 0.1 C 0.7 C 3.2 km/h (1 Bft)
02.04.2010 04:00 1.3 C 95 % 1018.8 hPa 0.0 l/m 4.5 km/h (1 Bft) O-SO 0.00 h 0 W/m 0.5 C 0.1 C 6.3 km/h (2 Bft)
02.04.2010 05:00 1.4 C 95 % 1018.6 hPa 0.0 l/m 3.5 km/h (1 Bft) O-SO 0.00 h 0 W/m 0.7 C 0.5 C 5.2 km/h (1 Bft)
02.04.2010 06:00 1.4 C 95 % 1018.4 hPa 0.0 l/m 1.1 km/h (1 Bft) S 0.00 h 0 W/m 0.7 C 1.4 C 2.7 km/h (1 Bft)
02.04.2010 07:00 1.5 C 94 % 1018.6 hPa 0.0 l/m 0.2 km/h (0 Bft) O 0.00 h 11 W/m 0.7 C 1.5 C 0.9 km/h (0 Bft)
02.04.2010 08:00 1.8 C 93 % 1018.5 hPa 0.0 l/m 0.3 km/h (0 Bft) O 0.00 h 44 W/m 0.7 C 1.8 C 1.6 km/h (1 Bft)
02.04.2010 09:00 2.1 C 91 % 1018.6 hPa 0.0 l/m 2.4 km/h (1 Bft) O-SO 0.00 h 91 W/m 0.8 C 1.7 C 4.7 km/h (1 Bft)
02.04.2010 10:00 2.5 C 88 % 1018.8 hPa 0.0 l/m 3.9 km/h (1 Bft) O-SO 0.00 h 174 W/m 0.7 C 1.8 C 6.7 km/h (2 Bft)
02.04.2010 11:00 3.5 C 84 % 1018.7 hPa 0.0 l/m 2.1 km/h (1 Bft) O 0.28 h 289 W/m 1.1 C 3.3 C 4.4 km/h (1 Bft)
02.04.2010 12:00 5.8 C 74 % 1018.2 hPa 0.2 l/m 2.7 km/h (1 Bft) W 0.18 h 660 W/m 1.6 C 5.6 C 4.6 km/h (1 Bft)
02.04.2010 13:00 8.5 C 64 % 1017.5 hPa 0.0 l/m 0.0 km/h (0 Bft) N 0.00 h 0 W/m 1.9 C 8.5 C 0.0 km/h (0 Bft)
02.04.2010 14:00 10.5 C 51 % 1016.1 hPa 0.2 l/m 4.5 km/h (1 Bft) O-SO 0.90 h 740 W/m 0.9 C 10.5 C 7.7 km/h (2 Bft)
02.04.2010 15:00 11.9 C 48 % 1015.0 hPa 0.0 l/m 5.5 km/h (1 Bft) S-SO 0.93 h 661 W/m 1.2 C 11.9 C 9.6 km/h (2 Bft)
02.04.2010 16:00 13.4 C 39 % 1014.0 hPa 0.0 l/m 8.2 km/h (2 Bft) SW 1.00 h 557 W/m -0.2 C 13.4 C 14.3 km/h (3 Bft)
02.04.2010 17:00 13.0 C 38 % 1013.4 hPa 0.0 l/m 8.4 km/h (2 Bft) W-SW 0.58 h 276 W/m -0.9 C 13.0 C 13.7 km/h (3 Bft)
02.04.2010 18:00 12.1 C 41 % 1013.2 hPa 0.0 l/m 6.0 km/h (2 Bft) SW 0.10 h 99 W/m -0.8 C 12.1 C 10.3 km/h (2 Bft)
02.04.2010 19:00 10.4 C 53 % 1013.0 hPa 0.0 l/m 4.1 km/h (1 Bft) SO 0.00 h 17 W/m 1.2 C 10.3 C 6.1 km/h (2 Bft)
02.04.2010 20:00 9.5 C 56 % 1013.2 hPa 0.0 l/m 2.2 km/h (1 Bft) SO 0.00 h 0 W/m 1.2 C 9.5 C 3.3 km/h (1 Bft)
02.04.2010 21:00 8.4 C 63 % 1013.4 hPa 0.0 l/m 1.0 km/h (0 Bft) O-SO 0.00 h 0 W/m 1.8 C 8.4 C 1.9 km/h (1 Bft)
02.04.2010 22:00 7.6 C 71 % 1013.6 hPa 0.0 l/m 1.0 km/h (0 Bft) O-SO 0.00 h 0 W/m 2.6 C 7.5 C 1.9 km/h (1 Bft)
02.04.2010 23:00 7.2 C 75 % 1013.6 hPa 0.0 l/m 0.6 km/h (0 Bft) O 0.00 h 0 W/m 3.0 C 7.2 C 1.5 km/h (1 Bft)
03.04.2010 00:00 6.9 C 76 % 1013.7 hPa 0.2 l/m 1.7 km/h (1 Bft) O-SO 0.00 h 0 W/m 3.0 C 6.8 C 2.9 km/h (1 Bft)
03.04.2010 01:00 6.6 C 85 % 1014.5 hPa 0.6 l/m 2.8 km/h (1 Bft) NW 0.00 h 0 W/m 4.3 C 6.4 C 4.7 km/h (1 Bft)
03.04.2010 02:00 6.3 C 90 % 1013.9 hPa 0.2 l/m 2.0 km/h (1 Bft) O-SO 0.00 h 0 W/m 4.8 C 6.1 C 3.3 km/h (1 Bft)
03.04.2010 03:00 5.9 C 92 % 1014.1 hPa 0.4 l/m 3.7 km/h (1 Bft) O-SO 0.00 h 0 W/m 4.7 C 5.2 C 5.4 km/h (1 Bft)
03.04.2010 04:00 5.4 C 92 % 1013.8 hPa 0.0 l/m 0.8 km/h (0 Bft) NW 0.00 h 0 W/m 4.3 C 5.4 C 1.9 km/h (1 Bft)
03.04.2010 05:00 4.8 C 94 % 1013.7 hPa 0.0 l/m 0.0 km/h (0 Bft) N 0.00 h 0 W/m 3.9 C 4.8 C 0.5 km/h (0 Bft)
03.04.2010 06:00 4.8 C 95 % 1013.7 hPa 0.0 l/m 0.5 km/h (0 Bft) NW 0.00 h 0 W/m 4.0 C 4.8 C 1.5 km/h (1 Bft)
03.04.2010 07:00 4.8 C 95 % 1013.7 hPa 0.0 l/m 0.0 km/h (0 Bft) N-NO 0.00 h 22 W/m 4.1 C 4.8 C 0.1 km/h (0 Bft)
03.04.2010 08:00 5.6 C 94 % 1014.1 hPa 0.0 l/m 0.1 km/h (0 Bft) N-NO 0.00 h 104 W/m 4.8 C 5.6 C 0.6 km/h (0 Bft)
03.04.2010 09:00 6.5 C 93 % 1014.0 hPa 0.0 l/m 1.6 km/h (1 Bft) W-NW 0.10 h 159 W/m 5.4 C 6.4 C 3.2 km/h (1 Bft)
03.04.2010 10:00 7.8 C 88 % 1013.5 hPa 0.0 l/m 2.3 km/h (1 Bft) W-NW 0.65 h 351 W/m 5.9 C 7.8 C 4.2 km/h (1 Bft)
03.04.2010 11:00 9.5 C 76 % 1013.0 hPa 0.0 l/m 3.6 km/h (1 Bft) W-NW 0.47 h 377 W/m 5.3 C 9.4 C 6.1 km/h (2 Bft)
03.04.2010 12:00 10.6 C 71 % 1012.5 hPa 0.0 l/m 4.3 km/h (1 Bft) W-NW 0.33 h 388 W/m 5.5 C 10.6 C 7.2 km/h (2 Bft)
03.04.2010 13:00 12.4 C 64 % 1011.5 hPa 0.0 l/m 5.1 km/h (1 Bft) W-NW 0.88 h 518 W/m 5.7 C 12.4 C 8.1 km/h (2 Bft)
03.04.2010 14:00 14.1 C 54 % 1010.7 hPa 0.0 l/m 3.4 km/h (1 Bft) N 1.00 h 537 W/m 5.0 C 14.1 C 5.9 km/h (2 Bft)
03.04.2010 15:00 14.2 C 51 % 1010.1 hPa 0.0 l/m 2.8 km/h (1 Bft) NW 0.03 h 326 W/m 4.2 C 14.2 C 5.0 km/h (1 Bft)
03.04.2010 16:00 14.0 C 50 % 1009.5 hPa 0.0 l/m 2.0 km/h (1 Bft) SO 0.00 h 225 W/m 3.8 C 14.0 C 3.8 km/h (1 Bft)
03.04.2010 17:00 14.0 C 50 % 1009.5 hPa 0.0 l/m 0.2 km/h (0 Bft) SO 0.00 h 114 W/m 3.8 C 14.0 C 0.9 km/h (0 Bft)
03.04.2010 18:00 13.4 C 54 % 1009.4 hPa 0.0 l/m 0.3 km/h (0 Bft) W 0.00 h 47 W/m 4.2 C 13.4 C 0.8 km/h (0 Bft)
03.04.2010 19:00 12.6 C 55 % 1009.6 hPa 0.0 l/m 2.3 km/h (1 Bft) SW 0.00 h 8 W/m 3.8 C 12.6 C 4.4 km/h (1 Bft)
03.04.2010 20:00 11.6 C 61 % 1009.0 hPa 0.0 l/m 2.6 km/h (1 Bft) O-SO 0.00 h 0 W/m 4.4 C 11.6 C 4.0 km/h (1 Bft)
03.04.2010 21:00 10.5 C 69 % 1008.8 hPa 0.0 l/m 1.0 km/h (0 Bft) W 0.00 h 0 W/m 5.1 C 10.5 C 2.2 km/h (1 Bft)
03.04.2010 22:00 9.5 C 74 % 1009.7 hPa 0.0 l/m 9.2 km/h (2 Bft) W 0.00 h 0 W/m 5.1 C 8.2 C 14.7 km/h (3 Bft)
03.04.2010 23:00 7.8 C 76 % 1010.6 hPa 0.0 l/m 7.3 km/h (2 Bft) W-NW 0.00 h 0 W/m 3.8 C 6.6 C 12.0 km/h (2 Bft)
04.04.2010 00:00 7.4 C 81 % 1011.4 hPa 0.2 l/m 10.1 km/h (2 Bft) W-NW 0.00 h 0 W/m 4.2 C 5.6 C 17.5 km/h (3 Bft)
04.04.2010 01:00 6.4 C 89 % 1012.2 hPa 2.6 l/m 3.2 km/h (1 Bft) W-NW 0.00 h 0 W/m 4.7 C 6.0 C 5.6 km/h (1 Bft)
04.04.2010 02:00 6.2 C 91 % 1012.8 hPa 2.0 l/m 2.0 km/h (1 Bft) W 0.00 h 0 W/m 4.8 C 6.1 C 4.2 km/h (1 Bft)
04.04.2010 03:00 6.6 C 87 % 1012.4 hPa 0.0 l/m 5.2 km/h (1 Bft) S-SW 0.00 h 0 W/m 4.5 C 5.9 C 9.4 km/h (2 Bft)
04.04.2010 04:00 6.1 C 88 % 1012.5 hPa 0.0 l/m 7.6 km/h (2 Bft) S 0.00 h 0 W/m 4.3 C 4.6 C 13.3 km/h (3 Bft)
04.04.2010 05:00 6.0 C 87 % 1012.5 hPa 0.2 l/m 6.4 km/h (2 Bft) S-SW 0.00 h 0 W/m 4.0 C 4.8 C 11.2 km/h (2 Bft)
04.04.2010 06:00 5.9 C 87 % 1012.6 hPa 0.2 l/m 4.0 km/h (1 Bft) S-SW 0.00 h 0 W/m 3.9 C 5.4 C 7.7 km/h (2 Bft)
04.04.2010 07:00 5.8 C 88 % 1013.2 hPa 0.2 l/m 1.9 km/h (1 Bft) S-SO 0.00 h 14 W/m 4.0 C 5.6 C 4.6 km/h (1 Bft)
04.04.2010 08:00 6.2 C 86 % 1013.5 hPa 0.0 l/m 3.7 km/h (1 Bft) S-SO 0.00 h 76 W/m 4.1 C 5.8 C 7.1 km/h (2 Bft)
04.04.2010 09:00 7.1 C 84 % 1013.8 hPa 0.0 l/m 4.1 km/h (1 Bft) S 0.00 h 184 W/m 4.7 C 6.7 C 8.2 km/h (2 Bft)
04.04.2010 10:00 8.0 C 81 % 1014.0 hPa 0.0 l/m 5.7 km/h (1 Bft) SW 0.35 h 295 W/m 5.0 C 7.3 C 9.9 km/h (2 Bft)
04.04.2010 11:00 9.7 C 74 % 1014.0 hPa 0.0 l/m 7.8 km/h (2 Bft) SW 0.97 h 428 W/m 5.4 C 9.0 C 12.2 km/h (2 Bft)
04.04.2010 12:00 11.1 C 68 % 1013.9 hPa 0.0 l/m 7.4 km/h (2 Bft) SW 0.58 h 418 W/m 5.5 C 11.1 C 11.8 km/h (2 Bft)
04.04.2010 13:00 10.5 C 66 % 1014.1 hPa 0.0 l/m 9.1 km/h (2 Bft) W 0.00 h 248 W/m 4.4 C 10.5 C 14.2 km/h (3 Bft)
04.04.2010 14:00 10.0 C 68 % 1014.5 hPa 0.0 l/m 12.4 km/h (3 Bft) W 0.15 h 286 W/m 4.3 C 9.0 C 19.0 km/h (3 Bft)
04.04.2010 15:00 9.9 C 72 % 1015.1 hPa 0.0 l/m 7.4 km/h (2 Bft) W 0.67 h 364 W/m 5.2 C 9.2 C 11.7 km/h (2 Bft)
04.04.2010 16:00 11.1 C 64 % 1014.9 hPa 0.0 l/m 7.2 km/h (2 Bft) W 0.50 h 264 W/m 4.6 C 11.1 C 11.4 km/h (2 Bft)
04.04.2010 17:00 11.1 C 57 % 1015.0 hPa 0.0 l/m 14.7 km/h (3 Bft) W 0.52 h 224 W/m 2.9 C 11.1 C 22.2 km/h (4 Bft)
04.04.2010 18:00 10.5 C 59 % 1015.7 hPa 0.0 l/m 12.5 km/h (3 Bft) W 0.05 h 100 W/m 2.9 C 10.1 C 19.0 km/h (3 Bft)
04.04.2010 19:00 9.4 C 63 % 1016.8 hPa 0.0 l/m 8.7 km/h (2 Bft) W 0.13 h 38 W/m 2.7 C 8.2 C 13.4 km/h (3 Bft)
04.04.2010 20:00 9.1 C 64 % 1017.3 hPa 0.0 l/m 6.0 km/h (2 Bft) W 0.00 h 5 W/m 2.7 C 8.4 C 8.8 km/h (2 Bft)
04.04.2010 21:00 8.5 C 66 % 1018.6 hPa 0.0 l/m 3.8 km/h (1 Bft) W-SW 0.00 h 0 W/m 2.5 C 8.3 C 6.0 km/h (2 Bft)
04.04.2010 22:00 7.6 C 69 % 1019.5 hPa 0.0 l/m 2.5 km/h (1 Bft) W-SW 0.00 h 0 W/m 2.2 C 7.4 C 4.2 km/h (1 Bft)
04.04.2010 23:00 6.1 C 76 % 1020.4 hPa 0.0 l/m 3.5 km/h (1 Bft) SO 0.00 h 0 W/m 2.1 C 5.8 C 5.3 km/h (1 Bft)
Min-Datum _ 02.04.10 02.04.10 30.03.10 - 29.03.10 - - - 02.04.10 02.04.10 29.03.10
_ Min-Zeit 14:00 16:35 14:15 - 00:00 - - - 16:35 04:44 00:00
Minimum _ -0.1 C 33 % 992.8 hPa - 0.0 km/h (0 Bft) - - - -2.7 C -1.4 C 0.0 km/h (0 Bft)
Max-Datum _ 29.03.10 29.03.10 04.04.10 04.04.10 30.03.10 - 29.03.10 31.03.10 29.03.10 29.03.10 30.03.10
_ Max-Zeit 15:38 01:04 23:30 01:04 23:05 - 09:37 14:06 10:01 15:37 16:27
Maximum _ 18.1 C 95 % 1020.5 hPa 2.6 l/m 38.2 km/h
W (5 Bft)
- 0.02 h 875 W/m 8.9 C 18.1 C 53.9 km/h
W (7 Bft)
Durchschnitt _ 8.0 C 76 % 1010.0 hPa #15.2 l/m 4.5 km/h (1 Bft) W #27:36 h 131 W/m 3.7 C 7.6 C 7.5 km/h (2 Bft)
© Kaiko 2010